Time;durP1;ratioP1;P1;durP2;ratioP2;P2;SDS_P1;SDS_P2;PMS_P1;PMS_P2;Temp;Humidity;BMP_temperature;BMP_pressure;BME280_temperature;BME280_humidity;BME280_pressure;Samples;Min_cycle;Max_cycle;Signal;HPM_P1;HPM_P2
2023/12/02 00:01:50;;;;;;;14.10;13.70;;;-0.50;99.90;;;;;;5089726;28;20469;-71
2023/12/02 00:04:19;;;;;;;13.73;13.33;;;-0.70;99.90;;;;;;5080197;28;20470;-72
2023/12/02 00:06:46;;;;;;;13.70;13.30;;;-0.70;99.90;;;;;;5078207;28;20470;-72
2023/12/02 00:09:13;;;;;;;13.40;13.00;;;-0.60;99.90;;;;;;5089215;28;20462;-72
2023/12/02 00:11:39;;;;;;;14.00;13.60;;;-0.50;99.90;;;;;;5095069;28;20498;-73
2023/12/02 00:14:06;;;;;;;13.37;12.97;;;-0.40;99.90;;;;;;5080319;28;20954;-72
2023/12/02 00:16:33;;;;;;;13.40;13.00;;;-0.40;99.90;;;;;;5087179;28;20478;-72
2023/12/02 00:19:00;;;;;;;13.70;13.30;;;-0.40;99.90;;;;;;5088577;28;20442;-71
2023/12/02 00:21:29;;;;;;;13.50;13.10;;;-0.40;99.90;;;;;;5087660;28;20478;-71
2023/12/02 00:23:56;;;;;;;13.10;12.70;;;-0.30;99.90;;;;;;5077801;28;20878;-71
2023/12/02 00:26:23;;;;;;;13.50;13.10;;;-0.30;99.90;;;;;;5086773;28;20569;-71
2023/12/02 00:28:51;;;;;;;13.30;12.90;;;-0.30;99.90;;;;;;5078691;28;20452;-71
2023/12/02 00:31:18;;;;;;;12.97;12.57;;;-0.30;99.90;;;;;;5077224;28;20561;-71
2023/12/02 00:33:45;;;;;;;13.10;12.70;;;-0.30;99.90;;;;;;5073105;28;20474;-71
2023/12/02 00:36:12;;;;;;;13.60;13.20;;;-0.40;99.90;;;;;;5079683;28;20511;-71
2023/12/02 00:38:40;;;;;;;13.50;13.10;;;-0.40;99.90;;;;;;5086735;28;20502;-71
2023/12/02 00:41:09;;;;;;;13.27;12.87;;;-0.40;99.90;;;;;;5088778;28;20561;-71
2023/12/02 00:43:36;;;;;;;13.50;13.10;;;-0.40;99.90;;;;;;5074244;28;20477;-71
2023/12/02 00:46:03;;;;;;;13.70;13.30;;;-0.30;99.90;;;;;;5073454;28;20468;-71
2023/12/02 00:48:30;;;;;;;13.70;13.30;;;-0.30;99.90;;;;;;5077937;28;20463;-71
2023/12/02 00:50:57;;;;;;;13.00;12.60;;;-0.30;99.90;;;;;;5086918;28;20520;-71
2023/12/02 00:53:24;;;;;;;13.03;12.63;;;-0.40;99.90;;;;;;5083197;28;20462;-71
2023/12/02 00:55:54;;;;;;;13.50;13.10;;;-0.40;99.90;;;;;;5084438;28;20465;-71
2023/12/02 00:58:21;;;;;;;13.53;13.13;;;-0.50;99.90;;;;;;5083424;28;20997;-72
2023/12/02 01:00:48;;;;;;;13.33;12.93;;;-0.40;99.90;;;;;;5083112;28;20454;-71
2023/12/02 01:03:14;;;;;;;13.73;13.33;;;-0.40;99.90;;;;;;5071098;28;20467;-71
2023/12/02 01:05:41;;;;;;;13.47;13.07;;;-0.30;99.90;;;;;;5085263;28;20462;-71
2023/12/02 01:08:08;;;;;;;13.57;13.17;;;-0.30;99.90;;;;;;5092306;28;20481;-72
2023/12/02 01:10:34;;;;;;;13.23;12.83;;;-0.40;99.90;;;;;;5088427;28;20458;-71
2023/12/02 01:13:03;;;;;;;13.73;13.33;;;-0.50;99.90;;;;;;5079738;28;20474;-71
2023/12/02 01:15:30;;;;;;;13.37;12.97;;;-0.50;99.90;;;;;;5081143;28;20558;-71
2023/12/02 01:17:57;;;;;;;13.50;13.10;;;-0.40;99.90;;;;;;5091074;28;20498;-71
2023/12/02 01:20:23;;;;;;;14.00;13.60;;;-0.40;99.90;;;;;;5077830;28;20486;-71
2023/12/02 01:22:50;;;;;;;13.60;13.20;;;-0.30;99.90;;;;;;5086475;28;20501;-71
2023/12/02 01:25:18;;;;;;;13.70;13.30;;;-0.20;99.90;;;;;;5083624;28;20491;-72
2023/12/02 01:27:45;;;;;;;13.30;12.90;;;-0.20;99.90;;;;;;5080182;28;20469;-71
2023/12/02 01:30:14;;;;;;;13.30;12.90;;;-0.20;99.90;;;;;;5088578;28;20454;-71
2023/12/02 01:32:40;;;;;;;13.60;13.20;;;-0.20;99.90;;;;;;5091781;28;20532;-71
2023/12/02 01:35:08;;;;;;;13.17;12.77;;;-0.20;99.90;;;;;;5077629;28;20459;-71
2023/12/02 01:37:34;;;;;;;13.53;13.13;;;-0.20;99.90;;;;;;5074218;28;20833;-71
2023/12/02 01:40:01;;;;;;;13.23;12.83;;;-0.40;99.90;;;;;;5093075;28;20458;-71
2023/12/02 01:42:28;;;;;;;13.60;13.20;;;-0.30;99.90;;;;;;5084495;28;20470;-71
2023/12/02 01:44:56;;;;;;;13.83;13.43;;;-0.40;99.90;;;;;;5088829;28;20487;-71
2023/12/02 01:47:25;;;;;;;13.83;13.43;;;-0.30;99.90;;;;;;5091337;28;20465;-71
2023/12/02 01:49:53;;;;;;;13.70;13.30;;;-0.20;99.90;;;;;;5087724;28;20451;-71
2023/12/02 01:52:23;;;;;;;13.67;13.27;;;-0.20;99.90;;;;;;5075186;28;20458;-71
2023/12/02 01:54:50;;;;;;;13.73;13.33;;;-0.20;99.90;;;;;;5088439;28;20937;-71
2023/12/02 01:57:18;;;;;;;13.33;12.93;;;-0.20;99.90;;;;;;5080288;28;21328;-71
2023/12/02 01:59:50;;;;;;;13.40;13.00;;;-0.20;99.90;;;;;;5080126;28;20827;-71
2023/12/02 02:02:16;;;;;;;13.67;13.27;;;-0.30;99.90;;;;;;5092359;28;20461;-71
2023/12/02 02:04:45;;;;;;;13.80;13.40;;;-0.30;99.90;;;;;;5091332;28;20458;-72
2023/12/02 02:07:12;;;;;;;14.50;14.00;;;-0.30;99.90;;;;;;5085439;28;20867;-71
2023/12/02 02:09:47;;;;;;;13.67;13.27;;;-0.40;99.90;;;;;;5092022;28;20467;-71
2023/12/02 02:12:16;;;;;;;14.03;13.63;;;-0.40;99.90;;;;;;5085200;28;20477;-72
2023/12/02 02:14:43;;;;;;;14.30;13.90;;;-0.40;99.90;;;;;;5085704;28;20455;-72
2023/12/02 02:17:10;;;;;;;13.97;13.57;;;-0.40;99.90;;;;;;5076049;28;20470;-71
2023/12/02 02:19:37;;;;;;;13.70;13.30;;;-0.40;99.90;;;;;;5076999;28;20465;-71
2023/12/02 02:22:05;;;;;;;13.30;12.90;;;-0.30;99.90;;;;;;5090577;28;20836;-71
2023/12/02 02:24:32;;;;;;;13.67;13.27;;;-0.20;99.90;;;;;;5090728;28;20475;-71
2023/12/02 02:27:02;;;;;;;13.90;13.50;;;-0.20;99.90;;;;;;5080769;28;20455;-72
2023/12/02 02:29:28;;;;;;;13.80;13.40;;;-0.20;99.90;;;;;;5088579;28;20463;-71
2023/12/02 02:31:55;;;;;;;13.47;13.07;;;-0.20;99.90;;;;;;5081148;28;20458;-71
2023/12/02 02:34:22;;;;;;;13.80;13.40;;;-0.20;99.90;;;;;;5088987;28;20465;-71
2023/12/02 02:36:49;;;;;;;13.13;12.73;;;-0.30;99.90;;;;;;5096179;28;20477;-71
2023/12/02 02:39:17;;;;;;;13.40;13.00;;;-0.40;99.90;;;;;;5086475;28;20499;-71
2023/12/02 02:41:46;;;;;;;13.10;12.70;;;-0.40;99.90;;;;;;5079016;28;20502;-71
2023/12/02 02:44:13;;;;;;;13.30;12.90;;;-0.40;99.90;;;;;;5088178;28;20450;-72
2023/12/02 02:46:40;;;;;;;13.60;13.20;;;-0.40;99.90;;;;;;5090274;28;20466;-72
2023/12/02 02:49:07;;;;;;;13.90;13.50;;;-0.40;99.90;;;;;;5076551;28;20471;-72
2023/12/02 02:51:34;;;;;;;13.10;12.70;;;-0.40;99.90;;;;;;5082617;28;20481;-71
2023/12/02 02:54:01;;;;;;;13.90;13.50;;;-0.30;99.90;;;;;;5086442;28;20524;-71
2023/12/02 02:56:31;;;;;;;13.00;12.60;;;-0.40;99.90;;;;;;5087216;28;20463;-71
2023/12/02 02:58:58;;;;;;;13.70;13.30;;;-0.50;99.90;;;;;;5082446;28;20490;-71
2023/12/02 03:01:25;;;;;;;12.60;12.30;;;-0.60;99.90;;;;;;5081209;28;20465;-71
2023/12/02 03:03:52;;;;;;;12.93;12.60;;;-0.50;99.90;;;;;;5089803;28;20470;-71
2023/12/02 03:06:19;;;;;;;13.13;12.73;;;-0.50;99.90;;;;;;5078850;28;20864;-72
2023/12/02 03:08:46;;;;;;;13.80;13.40;;;-0.50;99.90;;;;;;5081922;28;20454;-71
2023/12/02 03:11:13;;;;;;;13.40;13.00;;;-0.50;99.90;;;;;;5090085;28;20492;-71
2023/12/02 03:13:42;;;;;;;13.23;12.83;;;-0.50;99.90;;;;;;5083252;28;20932;-71
2023/12/02 03:16:10;;;;;;;13.30;12.90;;;-0.50;99.90;;;;;;5080140;28;20981;-71
2023/12/02 03:18:37;;;;;;;14.17;13.77;;;-0.50;99.90;;;;;;5080579;28;20470;-71
2023/12/02 03:21:05;;;;;;;13.30;12.90;;;-0.50;99.90;;;;;;5089761;28;20455;-71
2023/12/02 03:23:31;;;;;;;12.70;12.40;;;-0.50;99.90;;;;;;5084602;28;20487;-71
2023/12/02 03:25:58;;;;;;;13.20;12.80;;;-0.50;99.90;;;;;;5083474;28;20549;-71
2023/12/02 03:28:25;;;;;;;12.97;12.57;;;-0.60;99.90;;;;;;5087264;28;20582;-72
2023/12/02 03:30:54;;;;;;;13.13;12.73;;;-0.50;99.90;;;;;;5080571;28;20473;-71
2023/12/02 03:33:21;;;;;;;13.30;12.90;;;-0.50;99.90;;;;;;5090222;28;20466;-71
2023/12/02 03:35:48;;;;;;;13.80;13.40;;;-0.50;99.90;;;;;;5087842;28;20453;-71
2023/12/02 03:38:15;;;;;;;12.97;12.57;;;-0.50;99.90;;;;;;5081549;28;20473;-71
2023/12/02 03:40:41;;;;;;;13.70;13.30;;;-0.60;99.90;;;;;;5089513;28;20459;-72
2023/12/02 03:43:09;;;;;;;13.60;13.20;;;-0.60;99.90;;;;;;5078514;28;20812;-71
2023/12/02 03:45:35;;;;;;;13.33;12.93;;;-0.60;99.90;;;;;;5084678;28;20459;-70
2023/12/02 03:48:04;;;;;;;13.40;13.00;;;-0.60;99.90;;;;;;5077850;28;20466;-72
2023/12/02 03:50:33;;;;;;;13.97;13.57;;;-0.50;99.90;;;;;;5080366;28;20507;-71
2023/12/02 03:53:00;;;;;;;13.80;13.40;;;-0.50;99.90;;;;;;5086509;28;20794;-72
2023/12/02 03:55:26;;;;;;;13.87;13.47;;;-0.50;99.90;;;;;;5077958;28;20486;-71
2023/12/02 03:57:54;;;;;;;13.07;12.67;;;-0.40;99.90;;;;;;5075146;28;20545;-71
2023/12/02 04:00:21;;;;;;;14.10;13.70;;;-0.40;99.90;;;;;;5083261;28;20455;-71
2023/12/02 04:02:48;;;;;;;13.07;12.67;;;-0.40;99.90;;;;;;5098532;28;20493;-71
2023/12/02 04:05:17;;;;;;;13.60;13.20;;;-0.40;99.90;;;;;;5077167;28;20511;-70
2023/12/02 04:07:44;;;;;;;13.43;13.03;;;-0.40;99.90;;;;;;5086827;28;20455;-72
2023/12/02 04:10:11;;;;;;;13.30;12.90;;;-0.50;99.90;;;;;;5079808;28;20464;-72
2023/12/02 04:12:41;;;;;;;13.63;13.23;;;-0.60;99.90;;;;;;5081793;28;20740;-72
2023/12/02 04:15:10;;;;;;;13.10;12.70;;;-0.50;99.90;;;;;;5068777;28;20475;-71
2023/12/02 04:17:37;;;;;;;13.53;13.13;;;-0.50;99.90;;;;;;5085334;28;20541;-71
2023/12/02 04:20:08;;;;;;;13.43;13.03;;;-0.50;99.90;;;;;;5091247;28;20451;-71
2023/12/02 04:22:38;;;;;;;13.30;12.90;;;-0.70;99.90;;;;;;5084402;28;20488;-70
2023/12/02 04:25:08;;;;;;;13.67;13.27;;;-0.60;99.90;;;;;;5072960;28;20626;-71
2023/12/02 04:27:36;;;;;;;13.70;13.30;;;-0.60;99.90;;;;;;5075716;28;20792;-72
2023/12/02 04:30:04;;;;;;;13.50;13.10;;;-0.70;99.90;;;;;;5081681;28;20454;-71
2023/12/02 04:32:30;;;;;;;13.37;12.97;;;-0.70;99.90;;;;;;5075057;28;20844;-71
2023/12/02 04:34:59;;;;;;;13.90;13.50;;;-0.60;99.90;;;;;;5082843;28;20463;-71
2023/12/02 04:37:25;;;;;;;13.50;13.10;;;-0.60;99.90;;;;;;5075645;28;20490;-71
2023/12/02 04:39:55;;;;;;;13.73;13.33;;;-0.60;99.90;;;;;;5086444;28;21034;-71
2023/12/02 04:42:22;;;;;;;13.57;13.17;;;-0.50;99.90;;;;;;5087280;28;20960;-71
2023/12/02 04:44:50;;;;;;;14.07;13.67;;;-0.40;99.90;;;;;;5083989;28;20539;-71
2023/12/02 04:47:17;;;;;;;13.97;13.57;;;-0.40;99.90;;;;;;5088321;28;20454;-70
2023/12/02 04:49:45;;;;;;;13.50;13.10;;;-0.40;99.90;;;;;;5082217;28;20957;-70
2023/12/02 04:52:12;;;;;;;13.67;13.27;;;-0.50;99.90;;;;;;5076519;28;20459;-71
2023/12/02 04:54:39;;;;;;;13.17;12.77;;;-0.60;99.90;;;;;;5080320;28;20462;-71
2023/12/02 04:57:07;;;;;;;13.23;12.83;;;-0.60;99.90;;;;;;5082493;28;20490;-71
2023/12/02 04:59:34;;;;;;;14.00;13.60;;;-0.80;99.90;;;;;;5088536;28;20497;-71
2023/12/02 05:02:01;;;;;;;13.80;13.40;;;-0.70;99.90;;;;;;5101909;28;20461;-71
2023/12/02 05:04:29;;;;;;;12.97;12.60;;;-0.80;99.90;;;;;;5079961;28;20462;-71
2023/12/02 05:06:57;;;;;;;13.23;12.83;;;-0.70;99.90;;;;;;5076320;28;20462;-71
2023/12/02 05:09:26;;;;;;;12.93;12.53;;;-0.80;99.90;;;;;;5079323;28;20978;-72
2023/12/02 05:11:52;;;;;;;13.10;12.70;;;-0.90;99.90;;;;;;5080353;28;20459;-71
2023/12/02 05:14:21;;;;;;;13.23;12.83;;;-0.80;99.90;;;;;;5081765;28;20458;-71
2023/12/02 05:16:48;;;;;;;14.07;13.67;;;-0.70;99.90;;;;;;5074893;28;21307;-71
2023/12/02 05:19:15;;;;;;;13.63;13.23;;;-0.80;99.90;;;;;;5074374;28;20483;-71
2023/12/02 05:21:42;;;;;;;13.30;12.90;;;-0.80;99.90;;;;;;5074090;28;20474;-70
2023/12/02 05:24:09;;;;;;;12.93;12.53;;;-0.60;99.90;;;;;;5083553;28;20486;-71
2023/12/02 05:26:36;;;;;;;13.60;13.20;;;-0.50;99.90;;;;;;5087597;28;20545;-69
2023/12/02 05:29:05;;;;;;;13.80;13.40;;;-0.50;99.90;;;;;;5077754;28;20874;-72
2023/12/02 05:31:33;;;;;;;13.63;13.23;;;-0.40;99.90;;;;;;5071537;28;20546;-71
2023/12/02 05:34:00;;;;;;;13.70;13.30;;;-0.40;99.90;;;;;;5081032;28;20580;-70
2023/12/02 05:36:27;;;;;;;12.80;12.47;;;-0.50;99.90;;;;;;5069558;28;20471;-70
2023/12/02 05:38:54;;;;;;;13.40;13.00;;;-0.40;99.90;;;;;;5077398;28;20541;-71
2023/12/02 05:41:21;;;;;;;13.93;13.53;;;-0.40;99.90;;;;;;5090315;28;20476;-71
2023/12/02 05:43:48;;;;;;;13.73;13.33;;;-0.40;99.90;;;;;;5081885;28;20537;-71
2023/12/02 05:46:16;;;;;;;13.27;12.87;;;-0.40;99.90;;;;;;5079185;28;20642;-72
2023/12/02 05:48:45;;;;;;;12.97;12.57;;;-0.40;99.90;;;;;;5071339;28;21400;-71
2023/12/02 05:51:13;;;;;;;13.83;13.43;;;-0.50;99.90;;;;;;5084314;28;20927;-71
2023/12/02 05:53:40;;;;;;;13.07;12.67;;;-0.40;99.90;;;;;;5092135;28;20488;-71
2023/12/02 05:56:09;;;;;;;13.37;12.97;;;-0.30;99.90;;;;;;5081410;28;20534;-70
2023/12/02 05:58:36;;;;;;;13.10;12.70;;;-0.30;99.90;;;;;;5082777;28;20559;-71
2023/12/02 06:01:03;;;;;;;13.73;13.33;;;-0.20;99.90;;;;;;5076375;28;20507;-72
2023/12/02 06:03:30;;;;;;;14.20;13.80;;;-0.30;99.90;;;;;;5085394;28;20458;-71
2023/12/02 06:05:58;;;;;;;13.10;12.70;;;-0.30;99.90;;;;;;5082887;28;20544;-70
2023/12/02 06:08:26;;;;;;;13.10;12.70;;;-0.20;99.90;;;;;;5087273;28;20826;-71
2023/12/02 06:10:52;;;;;;;13.30;12.90;;;-0.30;99.90;;;;;;5079404;28;20946;-71
2023/12/02 06:13:19;;;;;;;12.67;12.33;;;-0.30;99.90;;;;;;5085912;28;20471;-70
2023/12/02 06:15:46;;;;;;;14.10;13.70;;;-0.40;99.90;;;;;;5089468;28;20470;-71
2023/12/02 06:18:13;;;;;;;12.63;12.33;;;-0.40;99.90;;;;;;5076616;28;20466;-71
2023/12/02 06:20:39;;;;;;;13.00;12.60;;;-0.40;99.90;;;;;;5084869;28;20470;-70
2023/12/02 06:23:08;;;;;;;13.13;12.73;;;-0.50;99.90;;;;;;5092442;28;20470;-70
2023/12/02 06:25:35;;;;;;;13.00;12.60;;;-0.50;99.90;;;;;;5081876;28;20493;-71
2023/12/02 06:28:02;;;;;;;13.30;12.90;;;-0.50;99.90;;;;;;5088401;28;20454;-70
2023/12/02 06:30:28;;;;;;;13.03;12.63;;;-0.50;99.90;;;;;;5081784;28;20450;-71
2023/12/02 06:32:55;;;;;;;13.37;12.97;;;-0.60;99.90;;;;;;5079425;28;20463;-71
2023/12/02 06:35:22;;;;;;;13.37;12.97;;;-0.70;99.90;;;;;;5083154;28;20479;-71
2023/12/02 06:37:49;;;;;;;13.13;12.73;;;-0.70;99.90;;;;;;5076261;28;20532;-70
2023/12/02 06:40:18;;;;;;;13.40;13.00;;;-0.60;99.90;;;;;;5085471;28;20497;-71
2023/12/02 06:42:45;;;;;;;13.20;12.80;;;-0.60;99.90;;;;;;5087779;28;20467;-71
2023/12/02 06:45:13;;;;;;;13.03;12.63;;;-0.60;99.90;;;;;;5080290;28;20506;-71
2023/12/02 06:47:39;;;;;;;13.10;12.70;;;-0.50;99.90;;;;;;5086579;28;20447;-71
2023/12/02 06:50:08;;;;;;;12.70;12.33;;;-0.60;99.90;;;;;;5075619;28;20470;-71
2023/12/02 06:52:35;;;;;;;12.97;12.57;;;-0.80;99.90;;;;;;5093223;28;20523;-72
2023/12/02 06:55:03;;;;;;;13.33;12.93;;;-0.80;99.90;;;;;;5081992;28;20476;-71
2023/12/02 06:57:32;;;;;;;13.03;12.63;;;-0.80;99.90;;;;;;5086100;28;20459;-71
2023/12/02 06:59:59;;;;;;;12.60;12.30;;;-0.80;99.90;;;;;;5085242;28;20524;-71
2023/12/02 07:02:27;;;;;;;13.10;12.70;;;-0.70;99.90;;;;;;5080395;28;20454;-71
2023/12/02 07:04:54;;;;;;;12.60;12.30;;;-0.70;99.90;;;;;;5086210;28;20929;-71
2023/12/02 07:07:21;;;;;;;13.40;13.00;;;-0.80;99.90;;;;;;5077640;28;20543;-71
2023/12/02 07:09:48;;;;;;;13.30;12.90;;;-0.90;99.90;;;;;;5089052;28;20450;-71
2023/12/02 07:12:15;;;;;;;13.37;12.97;;;-0.80;99.90;;;;;;5085156;28;20558;-71
2023/12/02 07:14:44;;;;;;;13.53;13.13;;;-0.80;99.90;;;;;;5077597;28;20462;-69
2023/12/02 07:17:10;;;;;;;13.90;13.50;;;-0.90;99.90;;;;;;5087887;28;21127;-71
2023/12/02 07:19:37;;;;;;;13.70;13.30;;;-0.80;99.90;;;;;;5089305;28;20482;-70
2023/12/02 07:22:04;;;;;;;14.00;13.60;;;-0.90;99.90;;;;;;5079930;28;20506;-71
2023/12/02 07:24:32;;;;;;;14.03;13.63;;;-0.90;99.90;;;;;;5074936;28;20498;-71
2023/12/02 07:26:59;;;;;;;14.73;14.23;;;-1.00;99.90;;;;;;5087332;28;20493;-71
2023/12/02 07:29:26;;;;;;;14.37;13.93;;;-1.00;99.90;;;;;;5083424;28;20462;-71
2023/12/02 07:31:54;;;;;;;13.83;13.43;;;-1.00;99.90;;;;;;5087022;28;20457;-71
2023/12/02 07:34:21;;;;;;;13.83;13.43;;;-1.00;99.90;;;;;;5078400;28;20463;-70
2023/12/02 07:36:48;;;;;;;14.70;14.20;;;-0.90;99.90;;;;;;5084202;28;20458;-71
2023/12/02 07:39:15;;;;;;;14.23;13.83;;;-0.80;99.90;;;;;;5077932;28;20498;-71
2023/12/02 07:41:45;;;;;;;14.80;14.30;;;-0.90;99.90;;;;;;5075775;28;20486;-71
2023/12/02 07:44:12;;;;;;;14.03;13.63;;;-0.90;99.90;;;;;;5082363;28;20462;-71
2023/12/02 07:46:38;;;;;;;13.87;13.47;;;-1.00;99.90;;;;;;5083228;28;20490;-71
2023/12/02 07:49:07;;;;;;;13.83;13.43;;;-1.00;99.90;;;;;;5082099;28;20855;-71
2023/12/02 07:51:33;;;;;;;14.40;13.90;;;-1.00;99.90;;;;;;5079048;28;20811;-71
2023/12/02 07:54:00;;;;;;;14.57;14.07;;;-1.00;99.90;;;;;;5074865;28;20471;-71
2023/12/02 07:56:27;;;;;;;15.00;14.50;;;-1.00;99.90;;;;;;5077110;28;20463;-71
2023/12/02 07:58:54;;;;;;;14.20;13.70;;;-1.10;99.90;;;;;;5080819;28;20482;-71
2023/12/02 08:01:21;;;;;;;14.40;13.90;;;-1.10;99.90;;;;;;5079370;28;20545;-71
2023/12/02 08:03:48;;;;;;;15.20;14.70;;;-1.10;99.90;;;;;;5073768;28;20483;-71
2023/12/02 08:06:17;;;;;;;14.63;14.13;;;-1.10;99.90;;;;;;5076766;28;20475;-71
2023/12/02 08:08:45;;;;;;;14.63;14.13;;;-1.20;99.90;;;;;;5082674;28;20546;-71
2023/12/02 08:11:12;;;;;;;14.70;14.20;;;-1.30;99.90;;;;;;5083634;28;20453;-71
2023/12/02 08:13:38;;;;;;;14.63;14.13;;;-1.30;99.90;;;;;;5088799;28;20941;-71
2023/12/02 08:16:06;;;;;;;15.07;14.57;;;-1.40;99.90;;;;;;5082749;28;20462;-70
2023/12/02 08:18:33;;;;;;;14.90;14.40;;;-1.40;99.90;;;;;;5075848;28;20466;-70
2023/12/02 08:21:00;;;;;;;14.93;14.43;;;-1.50;99.90;;;;;;5080023;28;20502;-70
2023/12/02 08:23:28;;;;;;;15.37;14.77;;;-1.60;99.90;;;;;;5085494;28;20557;-70
2023/12/02 08:25:55;;;;;;;14.47;13.97;;;-1.60;99.90;;;;;;5074660;28;20475;-70
2023/12/02 08:28:23;;;;;;;14.63;14.13;;;-1.70;99.90;;;;;;5088342;28;20454;-70
2023/12/02 08:30:50;;;;;;;15.10;14.60;;;-1.80;99.90;;;;;;5075375;28;20807;-70
2023/12/02 08:33:17;;;;;;;15.00;14.50;;;-1.80;99.90;;;;;;5082203;28;20455;-70
2023/12/02 08:35:44;;;;;;;14.70;14.20;;;-1.90;99.90;;;;;;5075759;28;20769;-69
2023/12/02 08:38:11;;;;;;;15.10;14.53;;;-1.90;99.90;;;;;;5079904;28;20470;-70
2023/12/02 08:40:40;;;;;;;15.47;14.87;;;-1.90;99.90;;;;;;5088008;28;20552;-69
2023/12/02 08:43:07;;;;;;;15.03;14.50;;;-1.80;99.90;;;;;;5086482;28;20455;-69
2023/12/02 08:45:34;;;;;;;15.30;14.70;;;-1.90;99.90;;;;;;5083515;28;21157;-70
2023/12/02 08:48:02;;;;;;;15.80;15.20;;;-1.90;99.90;;;;;;5076839;28;20470;-70
2023/12/02 08:50:28;;;;;;;15.57;14.97;;;-1.90;99.90;;;;;;5081578;28;20960;-71
2023/12/02 08:52:55;;;;;;;15.57;14.97;;;-1.80;99.90;;;;;;5083534;28;20470;-70
2023/12/02 08:55:24;;;;;;;15.17;14.57;;;-1.90;99.90;;;;;;5083997;28;20976;-71
2023/12/02 08:57:52;;;;;;;14.60;14.10;;;-1.80;99.90;;;;;;5073220;28;21023;-71
2023/12/02 09:00:19;;;;;;;15.30;14.70;;;-1.80;99.90;;;;;;5076998;28;20888;-71
2023/12/02 09:02:46;;;;;;;14.90;14.40;;;-1.60;99.90;;;;;;5081215;28;20477;-71
2023/12/02 09:05:13;;;;;;;14.90;14.40;;;-1.50;99.90;;;;;;5084692;28;20459;-71
2023/12/02 09:07:40;;;;;;;15.50;14.90;;;-1.40;99.90;;;;;;5084562;28;20459;-69
2023/12/02 09:10:09;;;;;;;15.17;14.57;;;-1.30;99.90;;;;;;5074813;28;20468;-69
2023/12/02 09:12:36;;;;;;;15.40;14.80;;;-1.20;99.90;;;;;;5081815;28;20466;-70
2023/12/02 09:15:08;;;;;;;15.13;14.63;;;-1.00;99.90;;;;;;5084478;28;20552;-69
2023/12/02 09:18:03;;;;;;;14.80;14.30;;;-0.90;99.90;;;;;;5068202;28;21189;-70
2023/12/02 09:20:39;;;;;;;14.87;14.37;;;-0.80;99.90;;;;;;5077275;28;20744;-70
2023/12/02 09:23:07;;;;;;;15.20;14.67;;;-0.70;99.90;;;;;;5087058;28;20470;-70
2023/12/02 09:25:36;;;;;;;15.50;14.90;;;-0.60;99.90;;;;;;5081099;28;20502;-71
2023/12/02 09:28:15;;;;;;;14.93;14.43;;;-0.60;99.90;;;;;;5086883;28;20458;-71
2023/12/02 09:30:52;;;;;;;15.13;14.63;;;-0.50;99.90;;;;;;5082511;28;20542;-70
2023/12/02 09:33:19;;;;;;;14.87;14.37;;;-0.60;99.90;;;;;;5078542;28;20454;-70
2023/12/02 09:35:46;;;;;;;15.57;14.97;;;-0.50;99.90;;;;;;5080613;28;21028;-70
2023/12/02 09:38:16;;;;;;;15.60;15.10;;;-0.50;99.90;;;;;;5070045;28;20459;-70
2023/12/02 09:41:13;;;;;;;15.07;14.57;;;-0.50;99.90;;;;;;5084079;28;21043;-70
2023/12/02 09:43:55;;;;;;;15.40;14.90;;;-0.50;99.90;;;;;;5049970;28;20465;-70
2023/12/02 09:46:33;;;;;;;15.57;15.07;;;-0.50;99.90;;;;;;5084460;28;20493;-70
2023/12/02 09:49:32;;;;;;;15.77;15.23;;;-0.60;99.90;;;;;;5091242;28;20523;-70
2023/12/02 09:52:16;;;;;;;15.80;15.20;;;-0.70;99.90;;;;;;5081493;28;20454;-70
2023/12/02 09:54:53;;;;;;;15.40;14.90;;;-0.50;99.90;;;;;;5079894;28;20462;-70
2023/12/02 09:57:33;;;;;;;15.87;15.27;;;-0.50;99.90;;;;;;5083042;28;20748;-70
2023/12/02 10:00:09;;;;;;;15.13;14.63;;;-0.60;99.90;;;;;;5085546;28;20491;-72
2023/12/02 10:02:47;;;;;;;15.20;14.70;;;-0.40;99.90;;;;;;5085671;28;20454;-70
2023/12/02 10:05:16;;;;;;;15.00;14.50;;;-0.40;99.90;;;;;;5078185;28;20466;-70
2023/12/02 10:08:00;;;;;;;13.83;13.40;;;-0.40;99.90;;;;;;5090793;28;20472;-70
2023/12/02 10:10:33;;;;;;;14.13;13.73;;;-0.50;99.90;;;;;;5099738;28;20460;-70
2023/12/02 10:13:12;;;;;;;14.33;13.83;;;-0.70;99.90;;;;;;5092990;28;20454;-70
2023/12/02 10:15:42;;;;;;;14.27;13.80;;;-0.80;99.90;;;;;;5089954;28;20461;-70
2023/12/02 10:18:13;;;;;;;14.50;14.00;;;-0.80;99.90;;;;;;5079436;28;20792;-70
2023/12/02 10:20:42;;;;;;;14.60;14.10;;;-0.80;99.90;;;;;;5089291;28;20485;-70
2023/12/02 10:23:18;;;;;;;14.33;13.83;;;-0.80;99.90;;;;;;5076241;28;20525;-70
2023/12/02 10:25:53;;;;;;;13.97;13.50;;;-0.70;99.90;;;;;;5082711;28;20478;-71
2023/12/02 10:28:28;;;;;;;14.60;14.10;;;-0.70;99.90;;;;;;5090942;28;20454;-69
2023/12/02 10:31:00;;;;;;;14.10;13.60;;;-0.80;99.90;;;;;;5086604;28;20462;-69
2023/12/02 10:33:35;;;;;;;14.47;13.97;;;-0.80;99.90;;;;;;5083931;28;20966;-70
2023/12/02 10:36:05;;;;;;;14.23;13.73;;;-0.80;99.90;;;;;;5084423;28;20465;-70
2023/12/02 10:38:46;;;;;;;14.20;13.70;;;-0.80;99.90;;;;;;5091255;28;20464;-69
2023/12/02 10:41:16;;;;;;;14.50;14.00;;;-0.70;99.90;;;;;;5084598;28;20498;-70
2023/12/02 10:43:45;;;;;;;14.80;14.30;;;-0.70;99.90;;;;;;5090268;28;21012;-70
2023/12/02 10:46:13;;;;;;;14.70;14.20;;;-0.70;99.90;;;;;;5086765;28;20742;-69
2023/12/02 10:48:41;;;;;;;14.47;13.97;;;-0.70;99.90;;;;;;5074154;28;20475;-70
2023/12/02 10:51:10;;;;;;;14.40;13.90;;;-0.60;99.90;;;;;;5087543;28;20458;-70
2023/12/02 10:53:38;;;;;;;14.80;14.30;;;-0.80;99.90;;;;;;5076998;28;20459;-70
2023/12/02 10:56:13;;;;;;;14.53;14.03;;;-0.80;99.90;;;;;;5088229;28;20458;-70
2023/12/02 10:58:42;;;;;;;14.60;14.10;;;-0.60;99.90;;;;;;5084707;28;20459;-73
2023/12/02 11:01:11;;;;;;;14.30;13.80;;;-0.30;99.90;;;;;;5090024;28;20522;-71
2023/12/02 11:03:46;;;;;;;13.57;13.17;;;0.40;99.90;;;;;;5080077;28;20517;-70
2023/12/02 11:06:22;;;;;;;13.87;13.47;;;1.10;99.90;;;;;;5083432;28;20528;-69
2023/12/02 11:08:54;;;;;;;13.50;13.10;;;1.50;99.90;;;;;;5085588;28;20462;-73
2023/12/02 11:11:32;;;;;;;14.20;13.70;;;1.30;99.90;;;;;;5079269;28;20965;-71
2023/12/02 11:14:02;;;;;;;14.27;13.80;;;0.80;99.90;;;;;;5077358;28;20468;-70
2023/12/02 11:16:34;;;;;;;14.13;13.70;;;0.40;99.90;;;;;;5086702;28;20458;-70
2023/12/02 11:19:30;;;;;;;14.27;13.77;;;0.30;99.90;;;;;;5076627;28;20489;-70
2023/12/02 11:22:13;;;;;;;14.40;13.90;;;0.00;99.90;;;;;;5081200;28;20589;-71
2023/12/02 11:24:56;;;;;;;14.90;14.40;;;-0.10;99.90;;;;;;5081619;28;20479;-70
2023/12/02 11:27:34;;;;;;;14.77;14.27;;;-0.20;99.90;;;;;;5089371;28;20470;-69
2023/12/02 11:30:09;;;;;;;14.73;14.23;;;-0.10;99.90;;;;;;5088414;28;20526;-70
2023/12/02 11:32:47;;;;;;;14.13;13.67;;;0.30;99.90;;;;;;5090252;28;20461;-71
2023/12/02 11:35:18;;;;;;;13.40;13.00;;;0.90;99.90;;;;;;5076463;28;20458;-71
2023/12/02 11:37:55;;;;;;;14.40;13.90;;;1.20;99.90;;;;;;5074406;28;20819;-71
2023/12/02 11:40:23;;;;;;;14.47;13.97;;;1.70;99.90;;;;;;5076935;28;20539;-71
2023/12/02 11:42:57;;;;;;;14.10;13.67;;;1.90;99.90;;;;;;5085686;28;20546;-71
2023/12/02 11:45:30;;;;;;;13.90;13.50;;;2.30;99.90;;;;;;5092280;28;20535;-72
2023/12/02 11:48:15;;;;;;;14.40;13.90;;;2.50;99.90;;;;;;5086311;28;21358;-72
2023/12/02 11:50:56;;;;;;;14.70;14.20;;;2.50;99.90;;;;;;5084976;28;20458;-72
2023/12/02 11:53:52;;;;;;;14.57;14.07;;;2.80;99.90;;;;;;5080938;28;20523;-72
2023/12/02 11:56:22;;;;;;;14.00;13.60;;;2.90;99.90;;;;;;5068446;28;20837;-71
2023/12/02 11:58:53;;;;;;;14.30;13.80;;;2.70;99.90;;;;;;5082269;28;20459;-71
2023/12/02 12:01:38;;;;;;;14.70;14.20;;;2.20;99.90;;;;;;5080352;28;20478;-71
2023/12/02 12:04:28;;;;;;;14.43;13.93;;;2.20;99.90;;;;;;5089058;28;20461;-71
2023/12/02 12:07:09;;;;;;;14.57;14.07;;;2.30;99.90;;;;;;5077593;28;20462;-71
2023/12/02 12:09:43;;;;;;;14.40;13.90;;;2.30;99.90;;;;;;5082013;28;20457;-70
2023/12/02 12:12:12;;;;;;;14.37;13.87;;;2.50;99.90;;;;;;5079068;28;20470;-70
2023/12/02 12:14:44;;;;;;;14.03;13.63;;;2.70;99.90;;;;;;5087054;28;20793;-70
2023/12/02 12:17:12;;;;;;;14.80;14.30;;;2.80;99.90;;;;;;5083492;28;20463;-70
2023/12/02 12:19:38;;;;;;;14.30;13.80;;;3.00;99.90;;;;;;5087179;28;20490;-70
2023/12/02 12:22:06;;;;;;;14.50;14.00;;;3.10;99.90;;;;;;5082202;28;20572;-70
2023/12/02 12:24:33;;;;;;;14.70;14.20;;;3.10;99.90;;;;;;5076134;28;20858;-69
2023/12/02 12:27:01;;;;;;;14.40;13.90;;;3.20;99.90;;;;;;5088936;28;20469;-69
2023/12/02 12:29:28;;;;;;;14.00;13.60;;;3.20;99.90;;;;;;5080788;28;21030;-69
2023/12/02 12:31:59;;;;;;;14.23;13.80;;;2.90;99.90;;;;;;5093812;28;20878;-69
2023/12/02 12:34:27;;;;;;;14.00;13.60;;;2.80;99.90;;;;;;5086663;28;20509;-69
2023/12/02 12:36:56;;;;;;;13.90;13.50;;;2.90;99.90;;;;;;5076246;28;20570;-69
2023/12/02 12:39:25;;;;;;;13.90;13.50;;;2.70;99.90;;;;;;5079846;28;21162;-69